»·PEaware :: N412J KMHV-KSNA

N412J :: KMHV-KSNA

FLIGHT INFORMATION

Flight Status: Arrived
Operator: Privately registered:
United States
More flights under this callsign
Pilot: John P. (38459)
Aircraft: Cessna 525C Citation CJ4
(C25C)
More flights by this aircraft type
Origin: KMHV Mojave
United States
Destination: KSNA John Wayne-Orange Co
United States
More flights between these airports :: More routes between these airports
Route: PMD V201 BERRI V459 SLI
File this flight plan on PilotEdge
Remarks:
Altitude:
(Current/Filed)
9,000ft
Speed:
(Current/Filed)
365kts
Departed: 18-Jan-23 08:16 AM
Arrived: 18-Jan-23 08:44 AM
Distance/Time
Traveled:
84nm/0:28
Distance/Time
To Go:
Arrived

Flight Plot

Page will automatically refresh every two minutes.


Map Options




Map Legend


Flown Route
Filed Route
Departure Airport
Arrival Airport
Navaid (VOR, NDB)
Fix

Horizontal Profiles

Position Reports

Time Latitude Longitude Heading Altitude Ground
Speed
18-Jan-23 07:42 35.057158 -118.157486 271 2767ft 0kts
18-Jan-23 07:43 35.057158 -118.157486 271 2767ft 0kts
18-Jan-23 07:44 35.057158 -118.157486 271 2767ft 0kts
18-Jan-23 07:45 35.057158 -118.157486 271 2767ft 0kts
18-Jan-23 07:46 35.057158 -118.157486 271 2767ft 0kts
18-Jan-23 07:47 35.057158 -118.157486 271 2767ft 0kts
18-Jan-23 07:48 35.057158 -118.157486 271 2767ft 0kts
18-Jan-23 07:49 35.057158 -118.157486 271 2767ft 0kts
18-Jan-23 07:50 35.057158 -118.157486 271 2767ft 0kts
18-Jan-23 07:51 35.057158 -118.157486 271 2767ft 0kts
18-Jan-23 07:52 35.057158 -118.157486 271 2767ft 0kts
18-Jan-23 07:53 35.057158 -118.157486 271 2767ft 0kts
18-Jan-23 07:54 35.057158 -118.157486 271 2767ft 0kts
18-Jan-23 07:55 35.057158 -118.157486 271 2767ft 0kts
18-Jan-23 07:56 35.057158 -118.157486 271 2767ft 0kts
18-Jan-23 07:57 35.057158 -118.157486 271 2767ft 0kts
18-Jan-23 07:58 35.057158 -118.157486 271 2767ft 0kts
18-Jan-23 07:59 35.057158 -118.157486 271 2767ft 0kts
18-Jan-23 08:00 35.057158 -118.157486 271 2767ft 0kts
18-Jan-23 08:01 35.057158 -118.157486 271 2758ft 0kts
18-Jan-23 08:02 35.057158 -118.157486 271 2758ft 0kts
18-Jan-23 08:03 35.057158 -118.157486 271 2758ft 0kts
18-Jan-23 08:04 35.057158 -118.157486 271 2767ft 0kts
18-Jan-23 08:05 35.057158 -118.157486 271 2767ft 0kts
18-Jan-23 08:06 35.057158 -118.157486 271 2767ft 0kts
18-Jan-23 08:07 35.057158 -118.157491 271 2767ft 0kts
18-Jan-23 08:08 35.057421 -118.157763 7 2767ft 0kts
18-Jan-23 08:09 35.057421 -118.157763 7 2767ft 0kts
18-Jan-23 08:10 35.057655 -118.154718 88 2761ft 16kts
18-Jan-23 08:11 35.057635 -118.148139 90 2748ft 21kts
18-Jan-23 08:12 35.058114 -118.142561 1 2738ft 11kts
18-Jan-23 08:13 35.058314 -118.142558 0 2738ft 0kts
18-Jan-23 08:14 35.059125 -118.142673 307 2739ft 9kts
18-Jan-23 08:15 35.058706 -118.178456 264 4344ft 210kts
18-Jan-23 08:16 35.021958 -118.227678 215 8227ft 237kts
18-Jan-23 08:17 34.965232 -118.284096 223 9039ft 280kts
18-Jan-23 08:18 34.904874 -118.345854 222 9053ft 285kts
18-Jan-23 08:19 34.836229 -118.335590 128 9057ft 295kts
18-Jan-23 08:20 34.782639 -118.259722 132 9054ft 297kts
18-Jan-23 08:21 34.726072 -118.186500 131 9041ft 296kts
18-Jan-23 08:22 34.669935 -118.113503 131 9035ft 295kts
18-Jan-23 08:23 34.601799 -118.076871 203 9037ft 290kts
18-Jan-23 08:24 34.528680 -118.118280 207 9037ft 290kts
18-Jan-23 08:25 34.454460 -118.157458 205 9014ft 291kts
18-Jan-23 08:26 34.380138 -118.196782 205 9038ft 294kts
18-Jan-23 08:27 34.305706 -118.236112 206 8983ft 289kts
18-Jan-23 08:28 34.232640 -118.274373 207 9010ft 285kts
18-Jan-23 08:29 34.158202 -118.271139 152 9005ft 288kts
18-Jan-23 08:30 34.086460 -118.229091 154 9008ft 286kts
18-Jan-23 08:31 34.014590 -118.187730 154 9011ft 285kts
18-Jan-23 08:33 33.941340 -118.156742 189 8619ft 278kts
18-Jan-23 08:34 33.865794 -118.171297 192 7559ft 271kts
18-Jan-23 08:35 33.798374 -118.153741 143 6224ft 250kts
18-Jan-23 08:36 33.744622 -118.104012 141 4982ft 236kts
18-Jan-23 08:37 33.694424 -118.056349 141 4968ft 222kts
18-Jan-23 08:38 33.652949 -118.005957 88 4999ft 212kts
18-Jan-23 08:39 33.687804 -117.953286 42 4931ft 199kts
18-Jan-23 08:40 33.725545 -117.909724 41 3485ft 203kts
18-Jan-23 08:41 33.748137 -117.853848 113 2182ft 190kts
18-Jan-23 08:42 33.705022 -117.851191 196 633ft 127kts
18-Jan-23 08:43 33.676289 -117.868531 205 51ft 94kts
18-Jan-23 08:44 33.669281 -117.871799 126 58ft 0kts
18-Jan-23 08:45 33.670057 -117.869973 40 53ft 13kts
18-Jan-23 08:46 33.672969 -117.867469 51 54ft 11kts
18-Jan-23 08:47 33.673061 -117.866373 64 54ft 0kts

Navigation Log

Ident Type
Flight plan parsing failed, navigation log unavailable